Markesan, WI

5:53 AM CST on February 11, 2016 (GMT -0600)
KWIBRAND2 | | Change Station
CLOSE
Current Station
Personal Weather Station
Location: Brandon, WI
Elevation: 999 ft
Nearby Weather Stations

Elev 999 ft 43.73 °N, 88.78 °W | Updated 18 seconds ago

Partly Cloudy
Partly Cloudy
-2.6 °F
Feels Like -11 °F
N
3.6
Wind Variable Wind from WNW
Gusts 5.4 mph

Today
High -- | Low -- °F
--% Chance of Precip.
Yesterday
High -- | Low -- °F
Precip. -- in
Pressure 30.25 in
Visibility 10.0 miles
Clouds Clear
Windchill -11 °F
Dew Point -28 °F
Humidity 27%
Rainfall 0.00 in
Snow Depth Not available.
7:00 AM 5:20 PM
Waxing Crescent, 11% visible
METAR KUNU 111135Z AUTO 31006KT 10SM CLR M18/M21 A3025 RMK AO2 T11761208
Pressure 30.25 in
Visibility 10.0 miles
Clouds Clear
Windchill -11 °F
Dew Point -28 °F
Humidity 27%
Rainfall 0.00 in
Snow Depth Not available.
7:00 AM 5:20 PM
Waxing Crescent, 11% visible
METAR KUNU 111135Z AUTO 31006KT 10SM CLR M18/M21 A3025 RMK AO2 T11761208

10-Day Weather Forecast

Almanac

Astronomy

Feb. 11, 2016 Rise Set
Actual Time
Civil Twilight
Nautical Twilight
Astronomical Twilight
Moon
Length of Visible Light
Length of Day
Tomorrow will be .
, % of the Moon is Illuminated

Today's Extremes

State Highs State Lows

Community

WunderPhotos

Upload Photos

1,892,030 photos uploaded!

WunderBlog® & News

Nearby

Air Quality

  Air Quality AQ Index Pollutant
Not available.

Snow Depth

Station Depth Elevation

Earthquake Activity

City Distance Mag. Time & Date
Minimum magnitude displayed is 2.5.

Coastal Water Temperatures

Place Temperature

Stations

Nearby Weather Stations

Station Location Temp. Windchill Dew Point Humidity Wind Precip. Elev Updated Type
                   

Watches & Warnings

There are currently no watches in effect.